Main page
METAR-TAF:

Airports :

Budapest, Hungary

Budapest Ferenc Liszt International Airport

latitude: 47-26N, longitude: 019-16E, elevation: 151 m

Current weather observation

The report was made 31 minutes ago, at 16:30 UTC
Wind 4 kt from the West/Southwest
Temperature 19°C
Humidity 56%
Pressure 1026 hPa
Visibility 10 km or more
no clouds below 1500 m and no cumulonimbus

METAR: LHBP 281630Z 24004KT CAVOK 19/10 Q1026 NOSIG

Time: 19:01 (17:01 UTC)

Forecast

The report was made 6 hours and 1 minutes ago, at 11:00 UTC
Forecast valid from 28 at 12 UTC to 29 at 12 UTC
Wind 8 kt from the West/Southwest
Visibility 10 km or more
no clouds below 1500 m and no cumulonimbus
Becoming
from 28 at 22 UTC to 29 at 01 UTC
Wind 4 kt from the Southwest
Becoming
from 29 at 07 UTC to 29 at 09 UTC
Wind 8 kt from the West/Northwest

TAF: LHBP 281100Z 2812/2912 24008KT CAVOK BECMG 2822/2901 22004KT BECMG 2907/2909 29008KT

METAR-TAF

Weather observations and forecasts of more than 4000 airports (METAR and TAF reports).

The available stations are represented by yellow and red dots on the map.

Hover mouse over dot to see the name of the station.

Then click to see weather observations and forecasts.

To change the map : click on the green buttons with a black cross to zoom in, on the green button with a dash to zoom out, or on the green arrows for adjacent maps.


METAR-TAF: